Time;durP1;ratioP1;P1;durP2;ratioP2;P2;SDS_P1;SDS_P2;PMS_P1;PMS_P2;Temp;Humidity;BMP_temperature;BMP_pressure;BME280_temperature;BME280_humidity;BME280_pressure;Samples;Min_cycle;Max_cycle;Signal;HPM_P1;HPM_P2
2023/04/08 00:00:52;;;;;;;4.18;3.47;;;;;;;9.86;54.78;99717.94;4489020;31;33325;-69
2023/04/08 00:03:20;;;;;;;8.32;4.47;;;;;;;10.06;53.67;99719.16;4482882;31;34529;-69
2023/04/08 00:05:48;;;;;;;6.22;3.97;;;;;;;9.57;55.34;99728.91;4491630;31;33512;-69
2023/04/08 00:08:15;;;;;;;6.30;4.35;;;;;;;9.54;55.50;99726.44;4491184;31;33626;-69
2023/04/08 00:10:43;;;;;;;9.15;5.40;;;;;;;10.03;54.22;99714.88;4491816;31;32668;-70
2023/04/08 00:13:11;;;;;;;10.07;6.47;;;;;;;8.90;57.43;99726.41;4489230;31;34108;-69
2023/04/08 00:15:38;;;;;;;15.18;6.75;;;;;;;9.27;56.98;99721.19;4489184;31;33574;-69
2023/04/08 00:18:06;;;;;;;8.48;3.75;;;;;;;9.05;57.59;99720.03;4486617;31;35171;-75
2023/04/08 00:20:33;;;;;;;5.47;4.62;;;;;;;9.35;56.66;99721.53;4493291;31;33697;-75
2023/04/08 00:23:01;;;;;;;7.35;4.60;;;;;;;9.65;55.57;99726.50;4491045;31;32002;-76
2023/04/08 00:25:30;;;;;;;8.25;4.87;;;;;;;9.19;57.04;99732.44;4492360;31;34950;-74
2023/04/08 00:27:57;;;;;;;8.60;6.70;;;;;;;9.44;56.40;99728.91;4488937;31;33591;-73
2023/04/08 00:30:26;;;;;;;12.82;5.95;;;;;;;9.10;57.53;99733.06;4492154;31;32467;-74
2023/04/08 00:32:54;;;;;;;15.05;8.68;;;;;;;9.03;58.04;99734.44;4486731;31;34881;-75
2023/04/08 00:35:22;;;;;;;11.60;5.82;;;;;;;9.31;57.06;99726.25;4484293;31;34610;-74
2023/04/08 00:37:50;;;;;;;10.63;5.78;;;;;;;9.36;56.67;99717.03;4494325;31;34027;-74
2023/04/08 00:40:17;;;;;;;7.78;3.75;;;;;;;9.44;56.43;99722.72;4489597;31;33884;-75
2023/04/08 00:42:45;;;;;;;6.20;4.68;;;;;;;9.30;56.55;99726.31;4491377;31;34404;-72
2023/04/08 00:45:13;;;;;;;11.48;5.30;;;;;;;8.88;58.28;99725.66;4487323;31;34993;-70
2023/04/08 00:47:40;;;;;;;7.22;5.20;;;;;;;8.82;58.42;99729.59;4492736;31;32062;-70
2023/04/08 00:50:09;;;;;;;11.63;7.07;;;;;;;9.22;56.83;99729.53;4492392;31;35226;-69
2023/04/08 00:52:37;;;;;;;6.90;5.82;;;;;;;9.35;56.87;99734.03;4491903;31;32043;-70
2023/04/08 00:55:05;;;;;;;7.50;4.37;;;;;;;9.45;56.41;99729.75;4489162;31;33408;-70
2023/04/08 00:57:33;;;;;;;6.65;5.00;;;;;;;9.52;55.98;99726.53;4493501;31;33896;-72
2023/04/08 01:00:00;;;;;;;4.65;3.65;;;;;;;9.32;56.44;99735.09;4495009;31;34231;-70
2023/04/08 01:02:44;;;;;;;4.40;3.33;;;;;;;9.07;57.36;99731.44;4491091;31;31905;-70
2023/04/08 01:05:20;;;;;;;5.65;4.47;;;;;;;9.21;56.82;99729.63;4489847;31;34857;-70
2023/04/08 01:07:49;;;;;;;5.03;3.35;;;;;;;9.08;57.69;99724.28;4489722;31;34794;-70
2023/04/08 01:10:20;;;;;;;4.97;3.97;;;;;;;9.17;57.26;99726.31;4496480;31;35064;-70
2023/04/08 01:12:55;;;;;;;8.20;3.20;;;;;;;9.25;56.83;99733.81;4494606;31;33996;-70
2023/04/08 01:15:25;;;;;;;8.10;6.00;;;;;;;8.83;58.58;99734.00;4494535;31;32246;-69
2023/04/08 01:17:55;;;;;;;4.93;3.05;;;;;;;8.43;60.22;99726.94;4482664;31;34542;-70
2023/04/08 01:20:24;;;;;;;5.53;4.12;;;;;;;8.68;58.96;99728.81;4495874;31;33453;-70
2023/04/08 01:23:06;;;;;;;6.20;4.20;;;;;;;8.55;59.12;99728.78;4486696;31;35072;-70
2023/04/08 01:25:35;;;;;;;9.80;5.30;;;;;;;8.68;58.95;99729.69;4481427;31;34384;-70
2023/04/08 01:28:06;;;;;;;6.03;3.58;;;;;;;8.73;58.61;99732.91;4490164;31;34997;-70
2023/04/08 01:30:34;;;;;;;3.00;1.80;;;;;;;8.66;59.06;99731.59;4494256;31;34437;-70
2023/04/08 01:33:03;;;;;;;5.80;4.00;;;;;;;8.42;60.03;99723.41;4491092;31;33148;-70
2023/04/08 01:35:31;;;;;;;3.42;2.83;;;;;;;8.38;59.73;99727.25;4483988;31;34958;-72
2023/04/08 01:37:59;;;;;;;4.90;3.33;;;;;;;8.52;59.20;99731.66;4483807;31;34791;-69
2023/04/08 01:40:26;;;;;;;7.18;3.30;;;;;;;8.57;59.25;99732.19;4485071;31;34359;-68
2023/04/08 01:42:58;;;;;;;6.22;3.67;;;;;;;8.74;58.85;99725.75;4483107;31;33326;-72
2023/04/08 01:45:27;;;;;;;5.57;3.33;;;;;;;8.16;60.37;99727.75;4486061;31;33057;-71
2023/04/08 01:47:55;;;;;;;10.73;4.05;;;;;;;8.57;59.11;99726.84;4487065;31;32519;-69
2023/04/08 01:50:24;;;;;;;7.87;4.03;;;;;;;8.65;58.71;99729.88;4496070;31;33840;-70
2023/04/08 01:52:53;;;;;;;10.60;3.58;;;;;;;8.93;58.26;99725.38;4484141;31;33070;-70
2023/04/08 01:55:21;;;;;;;13.85;4.95;;;;;;;8.54;58.82;99727.94;4482913;31;33699;-69
2023/04/08 01:57:51;;;;;;;5.65;4.30;;;;;;;8.59;59.21;99727.63;4484469;31;33845;-69
2023/04/08 02:00:21;;;;;;;4.97;3.97;;;;;;;9.03;57.49;99723.75;4488009;31;33749;-69
2023/04/08 02:02:50;;;;;;;4.30;3.67;;;;;;;8.92;58.00;99721.81;4486107;31;34413;-69
2023/04/08 02:05:18;;;;;;;4.32;2.72;;;;;;;8.32;59.10;99720.47;4487295;31;33713;-69
2023/04/08 02:07:47;;;;;;;5.87;3.80;;;;;;;8.81;58.28;99724.38;4491737;31;33938;-71
2023/04/08 02:10:15;;;;;;;3.22;2.92;;;;;;;8.02;60.77;99727.78;4493643;31;34895;-70
2023/04/08 02:12:43;;;;;;;5.22;3.37;;;;;;;8.34;60.13;99723.88;4493825;31;32702;-69
2023/04/08 02:15:12;;;;;;;6.72;3.70;;;;;;;8.70;58.98;99722.44;4490707;31;33318;-69
2023/04/08 02:17:50;;;;;;;4.15;3.67;;;;;;;8.85;58.77;99723.19;4484568;31;33754;-71
2023/04/08 02:20:50;;;;;;;5.68;4.80;;;;;;;8.80;58.95;99733.34;4484694;31;33682;-69
2023/04/08 02:23:23;;;;;;;11.38;5.37;;;;;;;9.17;57.80;99726.31;4482324;31;32324;-70
2023/04/08 02:25:52;;;;;;;6.93;4.12;;;;;;;8.59;59.55;99720.47;4482701;31;34818;-71
2023/04/08 02:28:20;;;;;;;9.02;5.62;;;;;;;9.19;57.70;99716.41;4483573;31;33933;-69
2023/04/08 02:30:49;;;;;;;9.70;5.25;;;;;;;8.65;59.49;99716.53;4489650;31;33888;-69
2023/04/08 02:33:19;;;;;;;4.15;2.65;;;;;;;8.89;58.44;99730.03;4483486;31;33735;-69
2023/04/08 02:35:48;;;;;;;11.73;5.75;;;;;;;8.62;59.15;99730.94;4489314;31;32711;-70
2023/04/08 02:38:16;;;;;;;10.63;5.40;;;;;;;8.31;60.77;99717.88;4488336;31;35703;-70
2023/04/08 02:40:44;;;;;;;3.05;2.15;;;;;;;8.39;60.55;99721.81;4482230;31;33944;-68
2023/04/08 02:43:11;;;;;;;11.12;6.07;;;;;;;8.39;60.87;99727.13;4496462;31;33207;-70
2023/04/08 02:45:43;;;;;;;11.07;5.15;;;;;;;8.59;60.43;99715.12;4497058;31;34388;-69
2023/04/08 02:48:10;;;;;;;6.70;4.28;;;;;;;7.99;62.14;99715.50;4492382;31;33407;-74
2023/04/08 02:50:39;;;;;;;9.73;4.18;;;;;;;8.21;61.21;99714.13;4494192;31;32421;-72
2023/04/08 02:53:08;;;;;;;4.80;2.67;;;;;;;8.60;60.17;99718.66;4483623;31;33781;-74
2023/04/08 02:55:35;;;;;;;6.28;3.72;;;;;;;8.86;59.32;99719.59;4496566;31;33624;-72
2023/04/08 02:58:03;;;;;;;4.70;3.60;;;;;;;8.68;60.04;99726.16;4492802;31;34947;-73
2023/04/08 03:00:30;;;;;;;9.40;5.00;;;;;;;8.53;60.29;99730.69;4493794;31;33767;-68
2023/04/08 03:02:58;;;;;;;8.82;6.93;;;;;;;8.07;61.80;99731.88;4490532;31;34413;-68
2023/04/08 03:05:26;;;;;;;6.28;3.47;;;;;;;8.26;61.03;99725.34;4495594;31;33599;-72
2023/04/08 03:07:54;;;;;;;8.35;5.90;;;;;;;8.48;60.71;99728.34;4489158;31;33773;-75
2023/04/08 03:10:21;;;;;;;7.65;3.97;;;;;;;8.23;61.43;99725.56;4482315;31;34089;-74
2023/04/08 03:12:49;;;;;;;4.60;3.55;;;;;;;8.89;59.36;99723.84;4486384;31;32218;-75
2023/04/08 03:15:17;;;;;;;5.87;3.72;;;;;;;8.82;59.30;99726.06;4495477;31;32435;-75
2023/04/08 03:17:44;;;;;;;12.00;6.00;;;;;;;8.92;58.80;99735.16;4488666;31;34096;-74
2023/04/08 03:20:12;;;;;;;8.93;3.37;;;;;;;9.25;57.82;99726.66;4496644;31;32708;-76
2023/04/08 03:22:39;;;;;;;8.75;5.90;;;;;;;9.15;58.15;99724.72;4495743;31;34301;-75
2023/04/08 03:25:07;;;;;;;10.05;3.62;;;;;;;9.50;56.76;99728.47;4489099;31;33712;-73
2023/04/08 03:27:35;;;;;;;10.43;6.05;;;;;;;8.86;58.88;99732.94;4492729;31;33659;-74
2023/04/08 03:30:03;;;;;;;7.57;5.18;;;;;;;9.18;57.98;99729.84;4495643;31;33148;-73
2023/04/08 03:32:31;;;;;;;18.67;5.03;;;;;;;9.18;57.60;99738.75;4496601;31;33149;-77
2023/04/08 03:34:59;;;;;;;5.37;3.70;;;;;;;8.94;58.54;99737.75;4492578;31;32390;-74
2023/04/08 03:37:27;;;;;;;9.70;6.35;;;;;;;8.73;59.60;99742.69;4495921;31;33952;-74
2023/04/08 03:39:54;;;;;;;8.77;5.87;;;;;;;9.18;57.79;99736.06;4485850;31;34865;-77
2023/04/08 03:42:22;;;;;;;7.57;4.22;;;;;;;9.52;56.88;99742.56;4480385;31;34370;-73
2023/04/08 03:44:50;;;;;;;10.65;6.40;;;;;;;9.46;56.96;99736.78;4480881;31;33176;-71
2023/04/08 03:47:17;;;;;;;5.47;4.57;;;;;;;9.64;56.15;99742.66;4483519;31;35275;-71
2023/04/08 03:49:44;;;;;;;10.88;4.70;;;;;;;9.75;56.00;99742.75;4490892;31;33597;-69
2023/04/08 03:52:12;;;;;;;11.02;6.82;;;;;;;9.35;57.62;99745.56;4496486;31;33057;-69
2023/04/08 03:54:40;;;;;;;12.57;6.57;;;;;;;8.98;58.44;99752.56;4493713;31;33480;-69
2023/04/08 03:57:07;;;;;;;10.95;4.30;;;;;;;8.74;59.77;99749.78;4494955;31;33861;-70
2023/04/08 03:59:35;;;;;;;4.47;2.72;;;;;;;8.82;59.58;99752.75;4482429;31;33861;-70
2023/04/08 04:02:03;;;;;;;9.52;4.85;;;;;;;9.50;57.30;99760.53;4491842;31;32130;-69
2023/04/08 04:04:30;;;;;;;6.85;3.12;;;;;;;9.56;56.67;99753.88;4494360;31;33761;-70
2023/04/08 04:06:58;;;;;;;4.97;3.15;;;;;;;9.09;58.05;99764.25;4487480;31;34115;-69
2023/04/08 04:09:25;;;;;;;4.47;3.37;;;;;;;9.22;57.44;99760.75;4493488;31;34726;-69
2023/04/08 04:11:53;;;;;;;9.65;5.97;;;;;;;9.00;58.37;99767.53;4486982;31;33250;-69
2023/04/08 04:14:20;;;;;;;6.10;4.05;;;;;;;8.93;58.57;99765.41;4488077;31;34453;-69
2023/04/08 04:16:48;;;;;;;11.68;5.78;;;;;;;9.17;57.43;99766.38;4488714;31;33906;-69
2023/04/08 04:19:17;;;;;;;9.45;6.55;;;;;;;8.88;58.08;99776.38;4491401;31;33697;-69
2023/04/08 04:21:44;;;;;;;4.68;2.75;;;;;;;8.88;58.55;99767.50;4486409;31;33075;-72
2023/04/08 04:24:12;;;;;;;7.10;4.60;;;;;;;8.96;58.60;99779.41;4491850;31;34918;-72
2023/04/08 04:26:40;;;;;;;6.20;4.62;;;;;;;8.84;58.39;99770.38;4494634;31;34878;-72
2023/04/08 04:29:08;;;;;;;5.57;3.58;;;;;;;9.30;57.28;99772.59;4496960;31;33784;-72
2023/04/08 04:31:36;;;;;;;6.32;4.00;;;;;;;9.15;57.93;99780.78;4496526;31;33196;-72
2023/04/08 04:34:03;;;;;;;6.15;4.05;;;;;;;9.18;58.04;99776.12;4495782;31;33632;-72
2023/04/08 04:36:31;;;;;;;10.48;5.78;;;;;;;9.30;57.54;99780.59;4495711;31;33442;-72
2023/04/08 04:38:58;;;;;;;8.48;4.57;;;;;;;9.28;57.19;99773.69;4489568;31;33590;-73
2023/04/08 04:41:26;;;;;;;7.93;5.75;;;;;;;8.83;58.69;99781.19;4490777;31;32119;-73
2023/04/08 04:43:54;;;;;;;7.80;4.00;;;;;;;8.79;59.06;99780.50;4494807;31;33750;-70
2023/04/08 04:46:21;;;;;;;10.65;6.43;;;;;;;8.98;58.79;99788.13;4494612;31;34875;-69
2023/04/08 04:48:50;;;;;;;4.05;2.78;;;;;;;8.44;60.22;99777.50;4487684;31;32677;-70
2023/04/08 04:51:17;;;;;;;3.97;3.10;;;;;;;8.85;59.17;99782.75;4489997;31;31823;-69
2023/04/08 04:53:45;;;;;;;7.07;4.40;;;;;;;8.90;58.95;99790.47;4497653;31;32379;-71
2023/04/08 04:56:12;;;;;;;5.50;4.75;;;;;;;8.85;58.96;99785.44;4496139;31;33775;-70
2023/04/08 04:58:40;;;;;;;8.60;5.55;;;;;;;8.45;60.30;99786.38;4489349;31;33803;-71
2023/04/08 05:01:08;;;;;;;7.18;3.40;;;;;;;8.57;59.81;99790.88;4483421;31;33312;-72
2023/04/08 05:03:36;;;;;;;8.32;4.35;;;;;;;8.17;61.02;99786.31;4487214;31;32225;-70
2023/04/08 05:06:03;;;;;;;10.32;7.35;;;;;;;8.20;61.15;99777.25;4490328;31;34166;-71
2023/04/08 05:08:30;;;;;;;12.40;4.68;;;;;;;8.17;61.49;99780.97;4490693;31;33634;-72
2023/04/08 05:11:00;;;;;;;6.43;5.85;;;;;;;8.47;60.88;99785.31;4495779;31;33206;-70
2023/04/08 05:13:28;;;;;;;7.72;3.72;;;;;;;8.61;60.32;99787.09;4497320;31;33826;-70
2023/04/08 05:15:56;;;;;;;6.97;4.25;;;;;;;8.67;59.96;99786.69;4484075;31;33917;-71
2023/04/08 05:18:24;;;;;;;2.37;2.15;;;;;;;8.40;60.95;99792.00;4493731;31;32157;-75
2023/04/08 05:20:51;;;;;;;4.70;2.67;;;;;;;8.59;60.10;99784.50;4487837;31;33229;-70
2023/04/08 05:23:19;;;;;;;2.75;1.98;;;;;;;8.58;60.22;99792.63;4492904;31;33733;-68
2023/04/08 05:25:46;;;;;;;4.85;1.85;;;;;;;8.63;60.19;99794.03;4491482;31;35050;-71
2023/04/08 05:28:14;;;;;;;3.87;3.58;;;;;;;8.43;60.23;99796.28;4489003;31;33759;-72
2023/04/08 05:30:41;;;;;;;8.68;4.70;;;;;;;8.53;60.10;99797.38;4494290;31;32972;-71
2023/04/08 05:33:09;;;;;;;8.02;4.65;;;;;;;8.49;60.37;99807.41;4492923;31;33495;-72
2023/04/08 05:35:37;;;;;;;10.45;5.28;;;;;;;8.22;61.13;99809.13;4492933;31;33744;-69
2023/04/08 05:38:05;;;;;;;7.57;3.05;;;;;;;8.07;62.11;99811.00;4492968;31;33575;-71
2023/04/08 05:40:33;;;;;;;6.30;3.87;;;;;;;8.26;61.31;99811.53;4483794;31;32135;-71
2023/04/08 05:43:00;;;;;;;5.50;3.05;;;;;;;7.94;61.99;99819.75;4496315;31;33462;-71
2023/04/08 05:45:29;;;;;;;7.28;3.83;;;;;;;7.96;62.55;99811.69;4497583;31;32902;-71
2023/04/08 05:47:57;;;;;;;5.40;3.60;;;;;;;8.43;61.47;99815.81;4493922;31;34469;-70
2023/04/08 05:50:24;;;;;;;2.55;2.35;;;;;;;7.68;63.51;99825.84;4486852;31;34314;-71
2023/04/08 05:52:51;;;;;;;6.72;4.37;;;;;;;8.46;61.15;99822.75;4491937;31;32255;-70
2023/04/08 05:55:19;;;;;;;2.58;2.35;;;;;;;8.46;61.13;99820.94;4486878;31;32867;-71
2023/04/08 05:57:47;;;;;;;6.03;3.22;;;;;;;8.66;60.19;99824.13;4483254;31;33888;-71
2023/04/08 06:00:15;;;;;;;5.93;4.32;;;;;;;8.54;60.49;99823.97;4492664;31;34413;-71
2023/04/08 06:02:43;;;;;;;3.20;2.75;;;;;;;7.70;63.13;99823.94;4492047;31;33574;-71
2023/04/08 06:05:11;;;;;;;3.72;2.90;;;;;;;7.86;63.21;99821.19;4486115;31;33990;-70
2023/04/08 06:07:38;;;;;;;3.58;3.17;;;;;;;8.12;61.47;99824.88;4493428;31;33332;-71
2023/04/08 06:10:07;;;;;;;7.07;3.50;;;;;;;8.23;61.21;99829.53;4485048;31;33356;-70
2023/04/08 06:12:36;;;;;;;2.90;2.50;;;;;;;7.75;62.12;99824.53;4492057;31;33784;-71
2023/04/08 06:15:04;;;;;;;4.25;2.72;;;;;;;8.14;61.57;99825.63;4496603;31;33947;-71
2023/04/08 06:17:35;;;;;;;7.32;2.72;;;;;;;7.44;64.07;99828.19;4483800;31;33896;-71
2023/04/08 06:20:04;;;;;;;2.25;1.92;;;;;;;7.98;62.77;99823.09;4498546;31;32353;-72
2023/04/08 06:22:31;;;;;;;8.23;3.92;;;;;;;8.10;62.50;99826.78;4497548;31;33234;-72
2023/04/08 06:24:59;;;;;;;2.90;2.65;;;;;;;7.70;63.07;99843.47;4493223;31;34153;-73
2023/04/08 06:27:27;;;;;;;3.15;2.80;;;;;;;7.54;64.67;99841.81;4488586;31;33776;-74
2023/04/08 06:29:54;;;;;;;3.75;2.53;;;;;;;8.00;62.18;99839.00;4489208;31;34269;-72
2023/04/08 06:32:22;;;;;;;4.87;3.03;;;;;;;7.86;62.16;99845.16;4495828;31;34834;-73
2023/04/08 06:34:50;;;;;;;4.68;2.97;;;;;;;7.68;63.21;99844.50;4497256;31;33226;-73
2023/04/08 06:37:17;;;;;;;2.65;1.85;;;;;;;7.41;64.16;99842.53;4493863;31;33665;-72
2023/04/08 06:39:45;;;;;;;5.62;2.90;;;;;;;7.58;64.12;99848.69;4495418;31;30926;-73
2023/04/08 06:42:12;;;;;;;6.35;4.32;;;;;;;7.57;64.06;99847.81;4492160;31;33812;-72
2023/04/08 06:44:42;;;;;;;6.60;4.05;;;;;;;7.80;63.68;99842.88;4485312;31;35120;-73
2023/04/08 06:47:10;;;;;;;3.95;3.40;;;;;;;6.66;66.54;99854.94;4493903;31;33627;-72
2023/04/08 06:49:37;;;;;;;4.35;3.15;;;;;;;7.39;64.47;99852.44;4489539;31;32016;-72
2023/04/08 06:52:05;;;;;;;6.07;3.10;;;;;;;7.63;63.67;99859.91;4492830;31;33635;-72
2023/04/08 06:54:33;;;;;;;4.18;2.60;;;;;;;7.57;64.36;99854.94;4495115;31;34967;-71
2023/04/08 06:57:00;;;;;;;7.22;3.75;;;;;;;7.71;63.75;99857.63;4499660;31;32700;-72
2023/04/08 06:59:29;;;;;;;5.28;3.22;;;;;;;7.44;64.27;99865.47;4498881;31;33196;-72
2023/04/08 07:01:57;;;;;;;6.00;3.08;;;;;;;7.12;64.78;99857.59;4483885;31;34975;-71
2023/04/08 07:04:24;;;;;;;2.83;1.85;;;;;;;6.40;67.89;99864.37;4495202;31;34272;-73
2023/04/08 07:06:52;;;;;;;4.97;3.30;;;;;;;7.34;65.38;99864.31;4494625;31;33671;-71
2023/04/08 07:09:20;;;;;;;6.28;3.97;;;;;;;7.29;65.07;99863.72;4496758;31;33132;-72
2023/04/08 07:11:47;;;;;;;3.33;1.92;;;;;;;7.66;63.33;99863.22;4490056;31;34873;-72
2023/04/08 07:14:14;;;;;;;6.57;3.72;;;;;;;7.46;64.77;99868.91;4489451;31;33351;-71
2023/04/08 07:16:42;;;;;;;3.40;1.70;;;;;;;7.60;64.05;99871.59;4493232;31;34932;-71
2023/04/08 07:19:10;;;;;;;7.05;4.87;;;;;;;7.70;64.14;99874.56;4493432;31;33284;-71
2023/04/08 07:21:38;;;;;;;4.37;2.78;;;;;;;6.85;66.11;99878.69;4492979;31;34787;-72
2023/04/08 07:24:05;;;;;;;2.92;2.00;;;;;;;6.35;67.79;99887.69;4490493;31;32672;-72
2023/04/08 07:26:33;;;;;;;4.68;3.60;;;;;;;7.41;64.99;99884.31;4488819;31;33802;-73
2023/04/08 07:29:01;;;;;;;3.60;2.85;;;;;;;7.95;63.12;99879.25;4486891;31;33050;-72
2023/04/08 07:31:28;;;;;;;5.93;4.25;;;;;;;8.11;63.17;99882.66;4489526;31;32629;-72
2023/04/08 07:33:56;;;;;;;5.37;3.65;;;;;;;7.96;63.73;99882.75;4492251;31;33008;-72
2023/04/08 07:36:23;;;;;;;3.92;2.78;;;;;;;7.09;65.37;99894.19;4495562;31;33184;-72
2023/04/08 07:38:51;;;;;;;5.85;3.42;;;;;;;7.85;63.53;99892.28;4494122;31;32856;-72
2023/04/08 07:41:20;;;;;;;2.83;2.05;;;;;;;8.09;62.27;99895.25;4486205;31;32499;-72
2023/04/08 07:43:47;;;;;;;5.85;3.50;;;;;;;8.05;62.16;99896.38;4489572;31;34069;-72
2023/04/08 07:46:15;;;;;;;4.47;2.78;;;;;;;7.79;63.15;99897.13;4494101;31;33679;-72
2023/04/08 07:48:42;;;;;;;2.80;2.47;;;;;;;7.89;63.57;99896.47;4489358;31;33402;-72
2023/04/08 07:51:09;;;;;;;2.65;2.35;;;;;;;7.20;65.57;99903.25;4491550;31;31981;-72
2023/04/08 07:53:39;;;;;;;1.60;1.45;;;;;;;7.86;63.88;99901.97;4497422;31;34021;-72
2023/04/08 07:56:14;;;;;;;3.20;2.85;;;;;;;7.93;62.49;99911.34;4494164;31;33109;-71
2023/04/08 07:58:42;;;;;;;11.00;4.25;;;;;;;8.11;63.09;99906.66;4493217;31;33347;-72
2023/04/08 08:01:17;;;;;;;3.22;2.92;;;;;;;7.82;63.80;99916.44;4492758;31;33366;-72
2023/04/08 08:03:46;;;;;;;1.73;1.62;;;;;;;7.95;63.31;99916.56;4488419;31;34098;-72
2023/04/08 08:06:14;;;;;;;3.47;2.92;;;;;;;8.00;63.54;99911.81;4494434;31;34560;-71
2023/04/08 08:08:42;;;;;;;2.95;2.72;;;;;;;8.04;63.57;99915.16;4491516;31;33249;-72
2023/04/08 08:11:09;;;;;;;10.52;3.53;;;;;;;8.05;63.66;99914.19;4490010;31;33835;-72
2023/04/08 08:13:37;;;;;;;5.87;3.42;;;;;;;8.22;63.24;99914.00;4496687;31;32646;-72
2023/04/08 08:16:07;;;;;;;3.60;2.42;;;;;;;8.30;62.48;99916.19;4493225;31;31733;-72
2023/04/08 08:18:39;;;;;;;3.03;2.58;;;;;;;8.27;62.22;99909.22;4492416;31;33178;-72
2023/04/08 08:21:07;;;;;;;1.55;1.45;;;;;;;8.00;63.62;99916.28;4491098;31;34221;-72
2023/04/08 08:23:36;;;;;;;7.15;3.72;;;;;;;8.28;62.32;99920.75;4481776;31;33551;-72
2023/04/08 08:26:11;;;;;;;2.92;2.35;;;;;;;7.19;66.76;99928.19;4491099;31;33802;-71
2023/04/08 08:28:39;;;;;;;5.70;3.40;;;;;;;7.04;68.07;99925.53;4496873;31;33341;-71
2023/04/08 08:31:06;;;;;;;4.20;3.83;;;;;;;7.79;65.34;99927.28;4481185;31;33850;-72
2023/04/08 08:33:34;;;;;;;1.40;1.30;;;;;;;7.67;65.60;99931.56;4490153;31;35050;-73
2023/04/08 08:36:04;;;;;;;1.87;1.65;;;;;;;7.57;65.94;99930.38;4486668;31;33522;-72
2023/04/08 08:38:32;;;;;;;4.70;1.70;;;;;;;8.03;64.27;99934.78;4485523;31;33406;-72
2023/04/08 08:41:00;;;;;;;2.85;1.90;;;;;;;8.11;64.10;99936.00;4488665;31;33531;-71
2023/04/08 08:43:28;;;;;;;4.97;2.92;;;;;;;8.20;63.48;99937.25;4489499;31;32831;-72
2023/04/08 08:45:55;;;;;;;2.95;2.10;;;;;;;7.51;65.61;99943.19;4488923;31;33904;-72
2023/04/08 08:48:23;;;;;;;2.92;2.37;;;;;;;7.88;64.32;99940.06;4490244;31;33084;-71
2023/04/08 08:50:50;;;;;;;3.22;2.92;;;;;;;6.84;68.62;99947.94;4484854;31;32168;-73
2023/04/08 08:53:19;;;;;;;3.83;1.98;;;;;;;7.66;65.67;99951.16;4491199;31;34576;-71
2023/04/08 08:55:47;;;;;;;6.57;4.12;;;;;;;8.39;63.40;99947.66;4484690;31;33775;-72
2023/04/08 08:58:18;;;;;;;6.20;3.42;;;;;;;7.25;66.67;99948.25;4497922;31;34134;-73
2023/04/08 09:00:45;;;;;;;2.85;2.12;;;;;;;8.20;63.40;99947.06;4489826;31;33587;-72
2023/04/08 09:03:22;;;;;;;2.72;2.47;;;;;;;8.50;62.60;99949.63;4493454;31;34962;-72
2023/04/08 09:05:55;;;;;;;3.00;2.15;;;;;;;8.13;63.52;99951.91;4485303;31;34831;-72
2023/04/08 09:08:24;;;;;;;6.93;4.40;;;;;;;8.12;64.39;99955.50;4492955;31;32141;-75
2023/04/08 09:10:53;;;;;;;6.15;3.92;;;;;;;7.97;63.77;99954.66;4489846;31;34133;-75
2023/04/08 09:13:23;;;;;;;2.50;1.42;;;;;;;8.02;64.76;99965.03;4491918;31;33907;-72
2023/04/08 09:16:03;;;;;;;7.25;3.40;;;;;;;8.30;63.63;99956.19;4491168;31;32684;-71
2023/04/08 09:18:32;;;;;;;15.73;2.35;;;;;;;8.45;62.72;99960.63;4488480;31;34287;-71
2023/04/08 09:21:01;;;;;;;4.12;2.40;;;;;;;8.17;63.44;99962.28;4492697;31;34431;-74
2023/04/08 09:23:46;;;;;;;9.40;2.65;;;;;;;7.39;65.80;99958.13;4498299;31;34286;-72
2023/04/08 09:26:21;;;;;;;10.77;3.20;;;;;;;7.98;62.83;99969.69;4497644;31;32570;-72
2023/04/08 09:29:01;;;;;;;5.97;3.45;;;;;;;7.52;65.18;99971.56;4496598;31;34429;-72
2023/04/08 09:31:41;;;;;;;3.28;2.75;;;;;;;8.03;64.11;99967.59;4490854;31;35347;-71
2023/04/08 09:34:10;;;;;;;10.52;5.60;;;;;;;8.16;63.91;99978.37;4489789;31;32964;-71
2023/04/08 09:36:38;;;;;;;4.47;3.53;;;;;;;8.22;63.98;99975.34;4483503;31;34593;-72
2023/04/08 09:39:06;;;;;;;2.78;2.20;;;;;;;7.87;64.81;99982.81;4490058;31;31919;-71
2023/04/08 09:41:35;;;;;;;2.05;1.85;;;;;;;7.84;64.67;99977.66;4492172;31;32639;-71
2023/04/08 09:44:05;;;;;;;5.47;2.87;;;;;;;7.83;65.27;99975.94;4488233;31;33770;-72
2023/04/08 09:46:42;;;;;;;4.03;2.97;;;;;;;8.42;63.75;99979.47;4484234;31;32320;-71
2023/04/08 09:49:12;;;;;;;4.78;3.45;;;;;;;7.52;65.66;99985.75;4483365;31;32908;-70
2023/04/08 09:51:44;;;;;;;6.50;3.53;;;;;;;7.59;65.34;99984.44;4490329;31;33893;-71
2023/04/08 09:54:13;;;;;;;5.45;3.30;;;;;;;6.78;68.49;99982.91;4484034;31;33767;-71
2023/04/08 09:57:02;;;;;;;4.37;3.62;;;;;;;6.82;67.81;99982.62;4486980;31;34309;-72
2023/04/08 09:59:32;;;;;;;6.03;2.80;;;;;;;7.51;65.72;99994.66;4484886;31;34122;-73
2023/04/08 10:02:06;;;;;;;5.78;3.35;;;;;;;6.89;66.64;99988.47;4481124;31;33593;-71
2023/04/08 10:04:38;;;;;;;8.15;4.80;;;;;;;7.39;66.32;99985.59;4485779;31;34010;-71
2023/04/08 10:07:06;;;;;;;4.03;3.17;;;;;;;7.86;65.77;99987.25;4485389;31;33726;-71
2023/04/08 10:09:34;;;;;;;5.30;4.12;;;;;;;7.96;63.76;99989.38;4488904;31;33949;-71
2023/04/08 10:12:03;;;;;;;2.80;2.12;;;;;;;7.85;64.11;99992.69;4496210;31;32817;-70
2023/04/08 10:14:31;;;;;;;4.07;2.97;;;;;;;7.91;64.66;99995.00;4483949;31;33813;-72
2023/04/08 10:17:25;;;;;;;3.65;2.92;;;;;;;7.47;64.96;99991.31;4490867;31;32389;-72
2023/04/08 10:19:53;;;;;;;4.12;2.00;;;;;;;7.72;64.08;99991.72;4496378;31;31774;-71
2023/04/08 10:22:32;;;;;;;5.05;3.35;;;;;;;7.54;65.64;99991.81;4496982;31;32897;-72
2023/04/08 10:25:31;;;;;;;4.12;3.20;;;;;;;7.93;63.58;99999.28;4490310;31;34901;-72
2023/04/08 10:28:00;;;;;;;3.33;2.45;;;;;;;7.82;64.74;99999.06;4498399;31;33656;-72
2023/04/08 10:30:28;;;;;;;3.12;2.83;;;;;;;7.74;63.84;99997.78;4485342;31;32875;-71
2023/04/08 10:32:56;;;;;;;3.42;3.05;;;;;;;7.31;66.08;99998.47;4489985;31;32569;-70
2023/04/08 10:35:30;;;;;;;10.43;4.03;;;;;;;7.47;65.45;99993.13;4488419;31;32806;-67
2023/04/08 10:37:58;;;;;;;4.32;2.87;;;;;;;7.48;65.13;100000.19;4489186;31;32463;-79
2023/04/08 10:40:26;;;;;;;6.60;4.28;;;;;;;7.78;64.12;99992.19;4489028;31;33032;-67
2023/04/08 10:42:55;;;;;;;4.62;3.15;;;;;;;7.81;65.49;99993.84;4489574;31;34893;-68
2023/04/08 10:45:22;;;;;;;4.78;2.45;;;;;;;8.07;64.20;99993.13;4490800;31;32796;-67
2023/04/08 10:47:50;;;;;;;9.40;3.87;;;;;;;7.79;64.57;100001.91;4492107;31;34865;-66
2023/04/08 10:50:19;;;;;;;5.28;4.47;;;;;;;7.99;63.82;99997.19;4491355;31;34582;-65
2023/04/08 10:52:52;;;;;;;6.80;2.75;;;;;;;8.06;62.48;99996.75;4489151;31;34750;-66
2023/04/08 10:55:24;;;;;;;11.57;4.65;;;;;;;8.06;62.77;99987.91;4491528;31;34187;-65
2023/04/08 10:57:52;;;;;;;14.48;5.25;;;;;;;7.82;63.80;99996.38;4491023;31;34857;-66
2023/04/08 11:00:35;;;;;;;2.95;1.62;;;;;;;7.88;64.39;99997.84;4492203;31;34542;-65
2023/04/08 11:03:05;;;;;;;5.25;4.57;;;;;;;8.24;64.02;99996.56;4491615;31;32894;-66
2023/04/08 11:05:35;;;;;;;4.03;3.40;;;;;;;8.32;63.18;99991.63;4487994;31;32561;-65
2023/04/08 11:08:03;;;;;;;6.87;4.32;;;;;;;8.34;62.66;99995.91;4491092;31;32045;-66
2023/04/08 11:10:37;;;;;;;5.57;4.20;;;;;;;8.10;62.85;100000.09;4489042;31;33216;-65
2023/04/08 11:13:11;;;;;;;3.70;2.78;;;;;;;7.44;64.83;99994.16;4497675;31;34420;-66
2023/04/08 11:15:39;;;;;;;8.48;3.37;;;;;;;7.75;63.32;99999.53;4492798;31;34001;-66
2023/04/08 11:18:07;;;;;;;5.62;3.70;;;;;;;8.02;62.72;99997.00;4485381;31;32825;-65
2023/04/08 11:20:36;;;;;;;3.65;1.90;;;;;;;7.75;64.14;99994.19;4488573;31;33459;-66
2023/04/08 11:23:03;;;;;;;9.90;2.97;;;;;;;7.92;64.13;100000.22;4492593;31;33858;-66
2023/04/08 11:25:31;;;;;;;6.20;4.40;;;;;;;8.31;62.81;100005.91;4492183;31;32895;-65
2023/04/08 11:27:59;;;;;;;3.12;1.73;;;;;;;7.74;64.67;100001.34;4492590;31;34872;-66
2023/04/08 11:30:27;;;;;;;4.40;3.40;;;;;;;8.66;62.15;100002.91;4485037;31;33446;-65
2023/04/08 11:32:55;;;;;;;5.25;3.62;;;;;;;8.48;61.40;100000.44;4485182;31;34034;-66
2023/04/08 11:35:23;;;;;;;2.33;2.12;;;;;;;8.57;61.66;100004.31;4483695;31;34159;-64
2023/04/08 11:37:51;;;;;;;3.53;2.67;;;;;;;8.08;62.71;100002.81;4489010;31;33577;-64
2023/04/08 11:40:21;;;;;;;2.87;2.60;;;;;;;7.92;62.17;100010.03;4491067;31;32653;-64
2023/04/08 11:42:51;;;;;;;3.37;2.15;;;;;;;7.76;63.57;100010.06;4492343;31;34892;-66
2023/04/08 11:45:20;;;;;;;7.18;5.18;;;;;;;8.32;61.94;100013.81;4492651;31;34020;-66
2023/04/08 11:47:47;;;;;;;4.22;3.33;;;;;;;8.57;61.47;100005.19;4486334;31;34846;-66